sensor_id;sensor_type;location;lat;lon;timestamp;temperature;humidity
12303;DHT22;6214;48.012;7.862;2023-04-03T00:00:50;8.70;99.90
12303;DHT22;6214;48.012;7.862;2023-04-03T00:03:18;8.70;99.90
12303;DHT22;6214;48.012;7.862;2023-04-03T00:05:46;8.80;99.90
12303;DHT22;6214;48.012;7.862;2023-04-03T00:08:13;8.80;99.90
12303;DHT22;6214;48.012;7.862;2023-04-03T00:10:40;8.80;99.90
12303;DHT22;6214;48.012;7.862;2023-04-03T00:13:08;8.40;99.90
12303;DHT22;6214;48.012;7.862;2023-04-03T00:15:35;8.30;99.90
12303;DHT22;6214;48.012;7.862;2023-04-03T00:18:03;8.40;99.90
12303;DHT22;6214;48.012;7.862;2023-04-03T00:20:30;8.60;99.90
12303;DHT22;6214;48.012;7.862;2023-04-03T00:22:57;8.80;99.90
12303;DHT22;6214;48.012;7.862;2023-04-03T00:25:24;8.80;99.90
12303;DHT22;6214;48.012;7.862;2023-04-03T00:27:51;9.00;99.90
12303;DHT22;6214;48.012;7.862;2023-04-03T00:30:20;9.10;99.90
12303;DHT22;6214;48.012;7.862;2023-04-03T00:32:48;9.10;99.90
12303;DHT22;6214;48.012;7.862;2023-04-03T00:35:16;9.00;99.90
12303;DHT22;6214;48.012;7.862;2023-04-03T00:37:44;8.90;99.90
12303;DHT22;6214;48.012;7.862;2023-04-03T00:40:13;9.00;99.90
12303;DHT22;6214;48.012;7.862;2023-04-03T00:42:43;9.20;99.90
12303;DHT22;6214;48.012;7.862;2023-04-03T00:47:40;9.00;99.90
12303;DHT22;6214;48.012;7.862;2023-04-03T00:50:09;9.10;99.90
12303;DHT22;6214;48.012;7.862;2023-04-03T00:52:37;9.00;99.90
12303;DHT22;6214;48.012;7.862;2023-04-03T00:55:06;8.50;99.90
12303;DHT22;6214;48.012;7.862;2023-04-03T00:57:34;8.00;99.90
12303;DHT22;6214;48.012;7.862;2023-04-03T01:00:06;7.90;99.90
12303;DHT22;6214;48.012;7.862;2023-04-03T01:02:36;7.70;99.90
12303;DHT22;6214;48.012;7.862;2023-04-03T01:05:04;8.00;99.90
12303;DHT22;6214;48.012;7.862;2023-04-03T01:07:31;8.20;99.90
12303;DHT22;6214;48.012;7.862;2023-04-03T01:10:02;8.20;99.90
12303;DHT22;6214;48.012;7.862;2023-04-03T01:12:35;8.00;99.90
12303;DHT22;6214;48.012;7.862;2023-04-03T01:17:36;7.70;99.90
12303;DHT22;6214;48.012;7.862;2023-04-03T01:28:07;8.00;99.90
12303;DHT22;6214;48.012;7.862;2023-04-03T01:30:42;8.10;99.90
12303;DHT22;6214;48.012;7.862;2023-04-03T01:33:10;8.20;99.90
12303;DHT22;6214;48.012;7.862;2023-04-03T01:35:37;8.30;99.90
12303;DHT22;6214;48.012;7.862;2023-04-03T01:38:04;8.30;99.90
12303;DHT22;6214;48.012;7.862;2023-04-03T01:40:31;8.40;99.90
12303;DHT22;6214;48.012;7.862;2023-04-03T01:42:58;8.30;99.90
12303;DHT22;6214;48.012;7.862;2023-04-03T01:45:25;8.20;99.90
12303;DHT22;6214;48.012;7.862;2023-04-03T01:47:52;8.20;99.90
12303;DHT22;6214;48.012;7.862;2023-04-03T01:50:19;8.10;99.90
12303;DHT22;6214;48.012;7.862;2023-04-03T01:52:46;8.20;99.90
12303;DHT22;6214;48.012;7.862;2023-04-03T01:55:13;8.10;99.90
12303;DHT22;6214;48.012;7.862;2023-04-03T01:57:41;7.90;99.90
12303;DHT22;6214;48.012;7.862;2023-04-03T02:00:09;7.80;99.90
12303;DHT22;6214;48.012;7.862;2023-04-03T02:02:36;7.90;99.90
12303;DHT22;6214;48.012;7.862;2023-04-03T02:05:03;7.80;99.90
12303;DHT22;6214;48.012;7.862;2023-04-03T02:07:30;8.00;99.90
12303;DHT22;6214;48.012;7.862;2023-04-03T02:09:57;7.80;99.90
12303;DHT22;6214;48.012;7.862;2023-04-03T02:12:24;7.80;99.90
12303;DHT22;6214;48.012;7.862;2023-04-03T02:14:51;7.70;99.90
12303;DHT22;6214;48.012;7.862;2023-04-03T02:17:18;7.50;99.90
12303;DHT22;6214;48.012;7.862;2023-04-03T02:19:45;7.50;99.90
12303;DHT22;6214;48.012;7.862;2023-04-03T02:22:12;7.50;99.90
12303;DHT22;6214;48.012;7.862;2023-04-03T02:24:39;7.40;99.90
12303;DHT22;6214;48.012;7.862;2023-04-03T02:27:07;7.40;99.90
12303;DHT22;6214;48.012;7.862;2023-04-03T02:29:34;7.40;99.90
12303;DHT22;6214;48.012;7.862;2023-04-03T02:32:01;7.60;99.90
12303;DHT22;6214;48.012;7.862;2023-04-03T02:34:28;7.60;99.90
12303;DHT22;6214;48.012;7.862;2023-04-03T02:36:55;7.50;99.90
12303;DHT22;6214;48.012;7.862;2023-04-03T02:39:22;7.50;99.90
12303;DHT22;6214;48.012;7.862;2023-04-03T02:41:49;7.50;99.90
12303;DHT22;6214;48.012;7.862;2023-04-03T02:44:16;7.40;99.90
12303;DHT22;6214;48.012;7.862;2023-04-03T02:46:44;7.40;99.90
12303;DHT22;6214;48.012;7.862;2023-04-03T02:49:11;7.50;99.90
12303;DHT22;6214;48.012;7.862;2023-04-03T02:51:38;7.40;99.90
12303;DHT22;6214;48.012;7.862;2023-04-03T02:54:05;7.30;99.90
12303;DHT22;6214;48.012;7.862;2023-04-03T02:56:32;7.30;99.90
12303;DHT22;6214;48.012;7.862;2023-04-03T02:58:59;7.20;99.90
12303;DHT22;6214;48.012;7.862;2023-04-03T03:01:26;7.20;99.90
12303;DHT22;6214;48.012;7.862;2023-04-03T03:03:59;7.30;99.90
12303;DHT22;6214;48.012;7.862;2023-04-03T03:06:27;7.20;99.90
12303;DHT22;6214;48.012;7.862;2023-04-03T03:08:54;7.10;99.90
12303;DHT22;6214;48.012;7.862;2023-04-03T03:11:21;7.10;99.90
12303;DHT22;6214;48.012;7.862;2023-04-03T03:13:48;7.10;99.90
12303;DHT22;6214;48.012;7.862;2023-04-03T03:16:15;7.00;99.90
12303;DHT22;6214;48.012;7.862;2023-04-03T03:18:42;6.90;99.90
12303;DHT22;6214;48.012;7.862;2023-04-03T03:21:09;6.90;99.90
12303;DHT22;6214;48.012;7.862;2023-04-03T03:23:36;6.90;99.90
12303;DHT22;6214;48.012;7.862;2023-04-03T03:26:06;6.90;99.90
12303;DHT22;6214;48.012;7.862;2023-04-03T03:28:33;6.90;99.90
12303;DHT22;6214;48.012;7.862;2023-04-03T03:31:01;6.80;99.90
12303;DHT22;6214;48.012;7.862;2023-04-03T03:33:29;6.80;99.90
12303;DHT22;6214;48.012;7.862;2023-04-03T03:35:56;6.80;99.90
12303;DHT22;6214;48.012;7.862;2023-04-03T03:38:23;7.00;99.90
12303;DHT22;6214;48.012;7.862;2023-04-03T03:40:51;7.30;99.90
12303;DHT22;6214;48.012;7.862;2023-04-03T03:43:18;7.20;99.90
12303;DHT22;6214;48.012;7.862;2023-04-03T03:45:46;7.30;99.90
12303;DHT22;6214;48.012;7.862;2023-04-03T03:48:16;7.40;99.90
12303;DHT22;6214;48.012;7.862;2023-04-03T03:50:43;7.30;99.90
12303;DHT22;6214;48.012;7.862;2023-04-03T03:53:10;7.30;99.90
12303;DHT22;6214;48.012;7.862;2023-04-03T03:55:37;7.10;99.90
12303;DHT22;6214;48.012;7.862;2023-04-03T03:58:04;7.00;99.90
12303;DHT22;6214;48.012;7.862;2023-04-03T04:00:31;6.90;99.90
12303;DHT22;6214;48.012;7.862;2023-04-03T04:02:58;6.90;99.90
12303;DHT22;6214;48.012;7.862;2023-04-03T04:05:26;6.90;99.90
12303;DHT22;6214;48.012;7.862;2023-04-03T04:07:53;6.90;99.90
12303;DHT22;6214;48.012;7.862;2023-04-03T04:10:19;6.80;99.90
12303;DHT22;6214;48.012;7.862;2023-04-03T04:12:46;6.70;99.90
12303;DHT22;6214;48.012;7.862;2023-04-03T04:15:16;6.70;99.90
12303;DHT22;6214;48.012;7.862;2023-04-03T04:17:42;6.70;99.90
12303;DHT22;6214;48.012;7.862;2023-04-03T04:20:10;6.70;99.90
12303;DHT22;6214;48.012;7.862;2023-04-03T04:22:37;6.70;99.90
12303;DHT22;6214;48.012;7.862;2023-04-03T04:25:06;6.80;99.90
12303;DHT22;6214;48.012;7.862;2023-04-03T04:27:33;6.70;99.90
12303;DHT22;6214;48.012;7.862;2023-04-03T04:30:00;6.70;99.90
12303;DHT22;6214;48.012;7.862;2023-04-03T04:32:27;6.80;99.90
12303;DHT22;6214;48.012;7.862;2023-04-03T04:34:54;6.90;99.90
12303;DHT22;6214;48.012;7.862;2023-04-03T04:37:21;7.00;99.90
12303;DHT22;6214;48.012;7.862;2023-04-03T04:39:48;7.20;99.90
12303;DHT22;6214;48.012;7.862;2023-04-03T04:42:15;7.20;99.90
12303;DHT22;6214;48.012;7.862;2023-04-03T04:44:43;7.30;99.90
12303;DHT22;6214;48.012;7.862;2023-04-03T04:47:10;7.20;99.90
12303;DHT22;6214;48.012;7.862;2023-04-03T04:49:37;7.30;99.90
12303;DHT22;6214;48.012;7.862;2023-04-03T04:52:04;7.20;99.90
12303;DHT22;6214;48.012;7.862;2023-04-03T04:54:32;7.10;99.90
12303;DHT22;6214;48.012;7.862;2023-04-03T04:56:59;7.00;99.90
12303;DHT22;6214;48.012;7.862;2023-04-03T04:59:26;7.00;99.90
12303;DHT22;6214;48.012;7.862;2023-04-03T05:01:53;6.90;99.90
12303;DHT22;6214;48.012;7.862;2023-04-03T05:04:20;6.90;99.90
12303;DHT22;6214;48.012;7.862;2023-04-03T05:06:47;7.00;99.90
12303;DHT22;6214;48.012;7.862;2023-04-03T05:09:14;7.20;99.90
12303;DHT22;6214;48.012;7.862;2023-04-03T05:11:41;7.10;99.90
12303;DHT22;6214;48.012;7.862;2023-04-03T05:14:09;7.30;99.90
12303;DHT22;6214;48.012;7.862;2023-04-03T05:16:36;7.40;99.90
12303;DHT22;6214;48.012;7.862;2023-04-03T05:19:03;7.40;99.90
12303;DHT22;6214;48.012;7.862;2023-04-03T05:21:30;7.30;99.90
12303;DHT22;6214;48.012;7.862;2023-04-03T05:23:59;7.20;99.90
12303;DHT22;6214;48.012;7.862;2023-04-03T05:26:31;7.20;99.90
12303;DHT22;6214;48.012;7.862;2023-04-03T05:28:58;7.20;99.90
12303;DHT22;6214;48.012;7.862;2023-04-03T05:31:25;7.20;99.90
12303;DHT22;6214;48.012;7.862;2023-04-03T05:33:52;7.30;99.90
12303;DHT22;6214;48.012;7.862;2023-04-03T05:36:19;7.20;99.90
12303;DHT22;6214;48.012;7.862;2023-04-03T05:38:46;7.20;99.90
12303;DHT22;6214;48.012;7.862;2023-04-03T05:41:15;7.10;99.90
12303;DHT22;6214;48.012;7.862;2023-04-03T05:43:42;7.20;99.90
12303;DHT22;6214;48.012;7.862;2023-04-03T05:46:13;7.40;99.90
12303;DHT22;6214;48.012;7.862;2023-04-03T05:48:42;7.40;99.90
12303;DHT22;6214;48.012;7.862;2023-04-03T05:51:24;7.50;99.90
12303;DHT22;6214;48.012;7.862;2023-04-03T05:54:17;7.50;99.90
12303;DHT22;6214;48.012;7.862;2023-04-03T05:56:44;7.40;99.90
12303;DHT22;6214;48.012;7.862;2023-04-03T05:59:11;7.40;99.90
12303;DHT22;6214;48.012;7.862;2023-04-03T06:01:38;7.60;99.90
12303;DHT22;6214;48.012;7.862;2023-04-03T06:04:05;7.70;99.90
12303;DHT22;6214;48.012;7.862;2023-04-03T06:06:52;7.70;99.90
12303;DHT22;6214;48.012;7.862;2023-04-03T06:09:24;7.50;99.90
12303;DHT22;6214;48.012;7.862;2023-04-03T06:11:52;7.30;99.90
12303;DHT22;6214;48.012;7.862;2023-04-03T06:14:19;7.40;99.90
12303;DHT22;6214;48.012;7.862;2023-04-03T06:16:47;7.60;99.90
12303;DHT22;6214;48.012;7.862;2023-04-03T06:19:14;7.80;99.90
12303;DHT22;6214;48.012;7.862;2023-04-03T06:21:41;7.70;99.90
12303;DHT22;6214;48.012;7.862;2023-04-03T06:24:09;7.70;99.90
12303;DHT22;6214;48.012;7.862;2023-04-03T06:26:39;7.80;99.90
12303;DHT22;6214;48.012;7.862;2023-04-03T06:29:05;8.00;99.90
12303;DHT22;6214;48.012;7.862;2023-04-03T06:31:32;8.20;99.90
12303;DHT22;6214;48.012;7.862;2023-04-03T06:33:59;8.30;99.90
12303;DHT22;6214;48.012;7.862;2023-04-03T06:36:27;8.50;99.90
12303;DHT22;6214;48.012;7.862;2023-04-03T06:38:54;8.50;99.90
12303;DHT22;6214;48.012;7.862;2023-04-03T06:41:21;8.30;99.90
12303;DHT22;6214;48.012;7.862;2023-04-03T06:43:49;8.50;99.90
12303;DHT22;6214;48.012;7.862;2023-04-03T06:46:19;8.70;99.90
12303;DHT22;6214;48.012;7.862;2023-04-03T06:48:46;8.70;99.90
12303;DHT22;6214;48.012;7.862;2023-04-03T06:51:34;8.70;99.90
12303;DHT22;6214;48.012;7.862;2023-04-03T06:54:03;8.60;99.90
12303;DHT22;6214;48.012;7.862;2023-04-03T06:56:31;8.70;99.90
12303;DHT22;6214;48.012;7.862;2023-04-03T06:58:58;8.60;99.90
12303;DHT22;6214;48.012;7.862;2023-04-03T07:01:26;8.50;99.90
12303;DHT22;6214;48.012;7.862;2023-04-03T07:03:55;8.80;99.90
12303;DHT22;6214;48.012;7.862;2023-04-03T07:06:22;9.10;99.90
12303;DHT22;6214;48.012;7.862;2023-04-03T07:08:49;9.50;99.90
12303;DHT22;6214;48.012;7.862;2023-04-03T07:11:17;9.70;99.90
12303;DHT22;6214;48.012;7.862;2023-04-03T07:13:44;9.60;99.90
12303;DHT22;6214;48.012;7.862;2023-04-03T07:16:11;9.70;99.90
12303;DHT22;6214;48.012;7.862;2023-04-03T07:18:38;10.10;99.90
12303;DHT22;6214;48.012;7.862;2023-04-03T07:21:05;10.50;99.90
12303;DHT22;6214;48.012;7.862;2023-04-03T07:23:33;10.50;99.90
12303;DHT22;6214;48.012;7.862;2023-04-03T07:26:00;10.50;99.90
12303;DHT22;6214;48.012;7.862;2023-04-03T07:28:28;10.70;99.90
12303;DHT22;6214;48.012;7.862;2023-04-03T07:31:01;10.60;99.90
12303;DHT22;6214;48.012;7.862;2023-04-03T07:33:29;11.00;99.90
12303;DHT22;6214;48.012;7.862;2023-04-03T07:35:56;11.20;99.90
12303;DHT22;6214;48.012;7.862;2023-04-03T07:38:23;11.60;99.90
12303;DHT22;6214;48.012;7.862;2023-04-03T07:40:51;11.60;99.90
12303;DHT22;6214;48.012;7.862;2023-04-03T07:43:20;12.10;99.90
12303;DHT22;6214;48.012;7.862;2023-04-03T07:54:43;12.40;99.90
12303;DHT22;6214;48.012;7.862;2023-04-03T07:57:10;12.80;99.90
12303;DHT22;6214;48.012;7.862;2023-04-03T07:59:38;13.00;99.90
12303;DHT22;6214;48.012;7.862;2023-04-03T08:02:08;13.40;99.90
12303;DHT22;6214;48.012;7.862;2023-04-03T08:04:35;13.80;99.90
12303;DHT22;6214;48.012;7.862;2023-04-03T08:07:02;13.50;99.90
12303;DHT22;6214;48.012;7.862;2023-04-03T08:09:29;13.50;99.90
12303;DHT22;6214;48.012;7.862;2023-04-03T08:11:56;13.70;99.90
12303;DHT22;6214;48.012;7.862;2023-04-03T08:14:23;14.10;99.90
12303;DHT22;6214;48.012;7.862;2023-04-03T08:16:50;13.70;99.90
12303;DHT22;6214;48.012;7.862;2023-04-03T08:19:17;13.80;99.90
12303;DHT22;6214;48.012;7.862;2023-04-03T08:21:53;14.10;99.90
12303;DHT22;6214;48.012;7.862;2023-04-03T08:24:20;14.60;99.90
12303;DHT22;6214;48.012;7.862;2023-04-03T08:26:47;14.50;99.90
12303;DHT22;6214;48.012;7.862;2023-04-03T08:29:14;14.10;99.90
12303;DHT22;6214;48.012;7.862;2023-04-03T08:31:41;17.60;99.90
12303;DHT22;6214;48.012;7.862;2023-04-03T08:34:07;18.60;99.50
12303;DHT22;6214;48.012;7.862;2023-04-03T08:36:35;19.30;96.20
12303;DHT22;6214;48.012;7.862;2023-04-03T08:39:02;18.30;94.00
12303;DHT22;6214;48.012;7.862;2023-04-03T08:41:36;17.70;94.00
12303;DHT22;6214;48.012;7.862;2023-04-03T08:49:56;22.10;82.30
12303;DHT22;6214;48.012;7.862;2023-04-03T08:52:34;20.30;78.30
12303;DHT22;6214;48.012;7.862;2023-04-03T08:58:05;17.90;81.90
12303;DHT22;6214;48.012;7.862;2023-04-03T09:00:44;16.30;83.80
12303;DHT22;6214;48.012;7.862;2023-04-03T09:03:14;16.00;90.00
12303;DHT22;6214;48.012;7.862;2023-04-03T09:06:04;16.40;91.10
12303;DHT22;6214;48.012;7.862;2023-04-03T09:11:35;15.30;92.10
12303;DHT22;6214;48.012;7.862;2023-04-03T09:14:36;15.00;92.50
12303;DHT22;6214;48.012;7.862;2023-04-03T09:17:21;15.40;92.00
12303;DHT22;6214;48.012;7.862;2023-04-03T09:20:14;15.30;92.10
12303;DHT22;6214;48.012;7.862;2023-04-03T09:22:46;17.10;91.50
12303;DHT22;6214;48.012;7.862;2023-04-03T09:25:22;16.50;88.90
12303;DHT22;6214;48.012;7.862;2023-04-03T09:27:50;15.10;89.90
12303;DHT22;6214;48.012;7.862;2023-04-03T09:30:24;14.70;91.80
12303;DHT22;6214;48.012;7.862;2023-04-03T09:32:53;13.90;92.10
12303;DHT22;6214;48.012;7.862;2023-04-03T09:35:26;13.50;93.30
12303;DHT22;6214;48.012;7.862;2023-04-03T09:43:34;18.20;87.30
12303;DHT22;6214;48.012;7.862;2023-04-03T09:49:00;21.20;69.50
12303;DHT22;6214;48.012;7.862;2023-04-03T09:51:36;20.00;67.10
12303;DHT22;6214;48.012;7.862;2023-04-03T09:54:38;18.30;65.00
12303;DHT22;6214;48.012;7.862;2023-04-03T09:57:12;17.00;72.20
12303;DHT22;6214;48.012;7.862;2023-04-03T09:59:59;15.60;74.10
12303;DHT22;6214;48.012;7.862;2023-04-03T10:02:37;14.50;78.70
12303;DHT22;6214;48.012;7.862;2023-04-03T10:07:52;13.10;83.60
12303;DHT22;6214;48.012;7.862;2023-04-03T10:10:35;12.80;86.50
12303;DHT22;6214;48.012;7.862;2023-04-03T10:13:12;12.50;87.30
12303;DHT22;6214;48.012;7.862;2023-04-03T10:15:51;12.00;89.70
12303;DHT22;6214;48.012;7.862;2023-04-03T10:18:45;12.20;90.80
12303;DHT22;6214;48.012;7.862;2023-04-03T10:21:40;12.30;90.30
12303;DHT22;6214;48.012;7.862;2023-04-03T10:24:28;12.70;91.30
12303;DHT22;6214;48.012;7.862;2023-04-03T10:27:15;12.50;90.60
12303;DHT22;6214;48.012;7.862;2023-04-03T10:30:01;12.30;91.10
12303;DHT22;6214;48.012;7.862;2023-04-03T10:32:45;12.40;92.00
12303;DHT22;6214;48.012;7.862;2023-04-03T10:43:09;11.90;92.30
12303;DHT22;6214;48.012;7.862;2023-04-03T10:51:29;12.10;93.40
12303;DHT22;6214;48.012;7.862;2023-04-03T10:56:52;11.90;93.80
12303;DHT22;6214;48.012;7.862;2023-04-03T10:59:50;12.30;93.80
12303;DHT22;6214;48.012;7.862;2023-04-03T11:02:33;12.60;92.40
12303;DHT22;6214;48.012;7.862;2023-04-03T11:05:07;12.60;93.60
12303;DHT22;6214;48.012;7.862;2023-04-03T11:07:45;12.70;93.90
12303;DHT22;6214;48.012;7.862;2023-04-03T11:13:15;12.80;92.50
12303;DHT22;6214;48.012;7.862;2023-04-03T11:15:44;12.70;92.70
12303;DHT22;6214;48.012;7.862;2023-04-03T11:18:19;12.40;92.70
12303;DHT22;6214;48.012;7.862;2023-04-03T11:21:00;12.70;94.00
12303;DHT22;6214;48.012;7.862;2023-04-03T11:23:32;12.70;92.80
12303;DHT22;6214;48.012;7.862;2023-04-03T11:26:19;12.50;92.80
12303;DHT22;6214;48.012;7.862;2023-04-03T11:28:53;12.00;92.80
12303;DHT22;6214;48.012;7.862;2023-04-03T11:36:57;12.10;94.60
12303;DHT22;6214;48.012;7.862;2023-04-03T11:39:30;12.00;94.00
12303;DHT22;6214;48.012;7.862;2023-04-03T11:47:51;13.00;93.80
12303;DHT22;6214;48.012;7.862;2023-04-03T11:53:26;13.20;92.30
12303;DHT22;6214;48.012;7.862;2023-04-03T11:58:27;12.50;92.70
12303;DHT22;6214;48.012;7.862;2023-04-03T12:01:00;12.50;93.20
12303;DHT22;6214;48.012;7.862;2023-04-03T12:43:47;13.60;94.60
12303;DHT22;6214;48.012;7.862;2023-04-03T12:46:24;13.20;94.10
12303;DHT22;6214;48.012;7.862;2023-04-03T12:48:58;12.60;93.30
12303;DHT22;6214;48.012;7.862;2023-04-03T12:51:39;12.40;94.20
12303;DHT22;6214;48.012;7.862;2023-04-03T12:56:48;12.60;93.90
12303;DHT22;6214;48.012;7.862;2023-04-03T12:59:26;12.40;93.10
12303;DHT22;6214;48.012;7.862;2023-04-03T13:04:21;12.30;93.60
12303;DHT22;6214;48.012;7.862;2023-04-03T13:06:49;11.80;94.10
12303;DHT22;6214;48.012;7.862;2023-04-03T13:11:51;11.20;95.40
12303;DHT22;6214;48.012;7.862;2023-04-03T13:14:24;11.30;95.90
12303;DHT22;6214;48.012;7.862;2023-04-03T13:17:14;11.40;96.50
12303;DHT22;6214;48.012;7.862;2023-04-03T13:19:44;11.50;95.80
12303;DHT22;6214;48.012;7.862;2023-04-03T13:24:51;12.10;95.30
12303;DHT22;6214;48.012;7.862;2023-04-03T13:27:19;11.90;95.20
12303;DHT22;6214;48.012;7.862;2023-04-03T13:29:52;12.10;95.20
12303;DHT22;6214;48.012;7.862;2023-04-03T13:32:22;11.90;94.90
12303;DHT22;6214;48.012;7.862;2023-04-03T13:34:51;11.70;94.90
12303;DHT22;6214;48.012;7.862;2023-04-03T13:37:32;11.70;95.20
12303;DHT22;6214;48.012;7.862;2023-04-03T13:40:18;11.60;95.00
12303;DHT22;6214;48.012;7.862;2023-04-03T13:42:45;11.60;95.70
12303;DHT22;6214;48.012;7.862;2023-04-03T13:45:26;11.70;94.90
12303;DHT22;6214;48.012;7.862;2023-04-03T13:48:18;11.90;94.70
12303;DHT22;6214;48.012;7.862;2023-04-03T13:51:05;11.80;95.00
12303;DHT22;6214;48.012;7.862;2023-04-03T13:53:34;11.60;95.50
12303;DHT22;6214;48.012;7.862;2023-04-03T13:56:13;11.30;95.50
12303;DHT22;6214;48.012;7.862;2023-04-03T14:04:24;11.00;95.90
12303;DHT22;6214;48.012;7.862;2023-04-03T14:06:52;10.80;96.50
12303;DHT22;6214;48.012;7.862;2023-04-03T14:09:20;10.90;97.60
12303;DHT22;6214;48.012;7.862;2023-04-03T14:11:50;10.90;97.20
12303;DHT22;6214;48.012;7.862;2023-04-03T14:14:24;10.70;97.60
12303;DHT22;6214;48.012;7.862;2023-04-03T14:16:57;10.70;98.00
12303;DHT22;6214;48.012;7.862;2023-04-03T14:19:29;10.90;97.60
12303;DHT22;6214;48.012;7.862;2023-04-03T14:21:57;10.70;97.60
12303;DHT22;6214;48.012;7.862;2023-04-03T14:24:25;10.60;97.50
12303;DHT22;6214;48.012;7.862;2023-04-03T14:26:53;10.70;97.40
12303;DHT22;6214;48.012;7.862;2023-04-03T14:29:21;10.60;97.10
12303;DHT22;6214;48.012;7.862;2023-04-03T14:31:50;10.30;97.30
12303;DHT22;6214;48.012;7.862;2023-04-03T14:34:29;10.40;97.60
12303;DHT22;6214;48.012;7.862;2023-04-03T14:36:56;10.90;97.50
12303;DHT22;6214;48.012;7.862;2023-04-03T14:39:23;11.10;97.10
12303;DHT22;6214;48.012;7.862;2023-04-03T14:41:50;11.10;96.50
12303;DHT22;6214;48.012;7.862;2023-04-03T14:44:17;11.20;96.90
12303;DHT22;6214;48.012;7.862;2023-04-03T14:46:44;10.90;97.10
12303;DHT22;6214;48.012;7.862;2023-04-03T14:49:27;10.60;96.90
12303;DHT22;6214;48.012;7.862;2023-04-03T14:51:57;10.40;96.70
12303;DHT22;6214;48.012;7.862;2023-04-03T14:54:25;10.30;96.90
12303;DHT22;6214;48.012;7.862;2023-04-03T14:56:55;10.40;97.50
12303;DHT22;6214;48.012;7.862;2023-04-03T14:59:23;10.20;97.70
12303;DHT22;6214;48.012;7.862;2023-04-03T15:01:51;10.20;97.50
12303;DHT22;6214;48.012;7.862;2023-04-03T15:04:20;10.40;98.00
12303;DHT22;6214;48.012;7.862;2023-04-03T15:06:48;10.40;98.00
12303;DHT22;6214;48.012;7.862;2023-04-03T15:09:21;10.40;96.90
12303;DHT22;6214;48.012;7.862;2023-04-03T15:11:50;10.30;96.60
12303;DHT22;6214;48.012;7.862;2023-04-03T15:14:17;10.40;96.90
12303;DHT22;6214;48.012;7.862;2023-04-03T15:17:02;10.60;97.00
12303;DHT22;6214;48.012;7.862;2023-04-03T15:19:36;10.80;96.80
12303;DHT22;6214;48.012;7.862;2023-04-03T15:22:04;10.70;96.40
12303;DHT22;6214;48.012;7.862;2023-04-03T15:24:31;10.80;96.20
12303;DHT22;6214;48.012;7.862;2023-04-03T15:26:59;10.50;96.00
12303;DHT22;6214;48.012;7.862;2023-04-03T15:29:27;10.50;96.50
12303;DHT22;6214;48.012;7.862;2023-04-03T15:31:54;10.70;96.80
12303;DHT22;6214;48.012;7.862;2023-04-03T15:34:21;10.90;97.10
12303;DHT22;6214;48.012;7.862;2023-04-03T15:36:49;10.70;96.40
12303;DHT22;6214;48.012;7.862;2023-04-03T15:39:19;10.40;96.60
12303;DHT22;6214;48.012;7.862;2023-04-03T15:41:47;10.30;96.50
12303;DHT22;6214;48.012;7.862;2023-04-03T15:44:14;10.40;95.80
12303;DHT22;6214;48.012;7.862;2023-04-03T17:02:47;7.20;99.90
12303;DHT22;6214;48.012;7.862;2023-04-03T17:05:14;7.50;99.90
12303;DHT22;6214;48.012;7.862;2023-04-03T17:07:41;7.80;99.90
12303;DHT22;6214;48.012;7.862;2023-04-03T17:10:08;8.30;99.90
12303;DHT22;6214;48.012;7.862;2023-04-03T17:12:35;8.70;99.90
12303;DHT22;6214;48.012;7.862;2023-04-03T17:15:03;8.90;99.70
12303;DHT22;6214;48.012;7.862;2023-04-03T17:17:30;8.90;99.20
12303;DHT22;6214;48.012;7.862;2023-04-03T17:19:58;9.00;98.90
12303;DHT22;6214;48.012;7.862;2023-04-03T17:22:25;9.00;98.90
12303;DHT22;6214;48.012;7.862;2023-04-03T17:24:52;9.10;98.90
12303;DHT22;6214;48.012;7.862;2023-04-03T17:27:19;9.20;98.60
12303;DHT22;6214;48.012;7.862;2023-04-03T17:29:46;9.20;98.70
12303;DHT22;6214;48.012;7.862;2023-04-03T17:32:13;9.10;98.40
12303;DHT22;6214;48.012;7.862;2023-04-03T17:34:40;9.20;99.30
12303;DHT22;6214;48.012;7.862;2023-04-03T17:37:07;9.10;99.50
12303;DHT22;6214;48.012;7.862;2023-04-03T17:39:34;9.20;99.60
12303;DHT22;6214;48.012;7.862;2023-04-03T17:42:01;9.10;99.90
12303;DHT22;6214;48.012;7.862;2023-04-03T17:44:27;9.10;99.60
12303;DHT22;6214;48.012;7.862;2023-04-03T17:46:54;9.00;99.90
12303;DHT22;6214;48.012;7.862;2023-04-03T17:49:21;8.90;99.80
12303;DHT22;6214;48.012;7.862;2023-04-03T17:51:48;8.90;99.40
12303;DHT22;6214;48.012;7.862;2023-04-03T17:54:15;8.90;99.50
12303;DHT22;6214;48.012;7.862;2023-04-03T17:56:43;8.90;99.80
12303;DHT22;6214;48.012;7.862;2023-04-03T17:59:15;8.80;99.70
12303;DHT22;6214;48.012;7.862;2023-04-03T18:01:44;8.70;99.60
12303;DHT22;6214;48.012;7.862;2023-04-03T18:04:12;8.60;99.90
12303;DHT22;6214;48.012;7.862;2023-04-03T18:06:43;8.70;99.90
12303;DHT22;6214;48.012;7.862;2023-04-03T18:09:17;8.60;99.70
12303;DHT22;6214;48.012;7.862;2023-04-03T18:11:46;8.60;99.90
12303;DHT22;6214;48.012;7.862;2023-04-03T18:14:15;8.60;99.90
12303;DHT22;6214;48.012;7.862;2023-04-03T18:16:43;8.50;99.90
12303;DHT22;6214;48.012;7.862;2023-04-03T18:19:10;8.50;99.90
12303;DHT22;6214;48.012;7.862;2023-04-03T18:21:52;8.50;99.90
12303;DHT22;6214;48.012;7.862;2023-04-03T18:24:21;8.60;99.90
12303;DHT22;6214;48.012;7.862;2023-04-03T18:26:52;8.70;99.90
12303;DHT22;6214;48.012;7.862;2023-04-03T18:29:21;8.70;99.90
12303;DHT22;6214;48.012;7.862;2023-04-03T18:31:51;8.70;99.90
12303;DHT22;6214;48.012;7.862;2023-04-03T18:34:19;8.50;99.90
12303;DHT22;6214;48.012;7.862;2023-04-03T18:36:46;8.40;99.90
12303;DHT22;6214;48.012;7.862;2023-04-03T18:39:13;8.30;99.90
12303;DHT22;6214;48.012;7.862;2023-04-03T18:41:41;8.30;99.90
12303;DHT22;6214;48.012;7.862;2023-04-03T18:44:12;8.20;99.90
12303;DHT22;6214;48.012;7.862;2023-04-03T18:46:40;8.20;99.90
12303;DHT22;6214;48.012;7.862;2023-04-03T18:49:08;8.20;99.90
12303;DHT22;6214;48.012;7.862;2023-04-03T18:51:35;8.10;99.90
12303;DHT22;6214;48.012;7.862;2023-04-03T18:54:05;8.00;99.90
12303;DHT22;6214;48.012;7.862;2023-04-03T18:56:36;8.10;99.90
12303;DHT22;6214;48.012;7.862;2023-04-03T18:59:03;8.10;99.90
12303;DHT22;6214;48.012;7.862;2023-04-03T19:01:30;8.10;99.90
12303;DHT22;6214;48.012;7.862;2023-04-03T19:03:58;8.00;99.90
12303;DHT22;6214;48.012;7.862;2023-04-03T19:06:25;7.90;99.90
12303;DHT22;6214;48.012;7.862;2023-04-03T19:08:52;7.90;99.90
12303;DHT22;6214;48.012;7.862;2023-04-03T19:11:19;7.80;99.90
12303;DHT22;6214;48.012;7.862;2023-04-03T19:13:46;7.80;99.90
12303;DHT22;6214;48.012;7.862;2023-04-03T19:16:33;7.80;99.90
12303;DHT22;6214;48.012;7.862;2023-04-03T19:19:00;7.80;99.90
12303;DHT22;6214;48.012;7.862;2023-04-03T19:21:27;7.80;99.90
12303;DHT22;6214;48.012;7.862;2023-04-03T19:23:54;7.60;99.90
12303;DHT22;6214;48.012;7.862;2023-04-03T19:26:24;7.50;99.90
12303;DHT22;6214;48.012;7.862;2023-04-03T19:28:52;7.40;99.90
12303;DHT22;6214;48.012;7.862;2023-04-03T19:31:20;7.40;99.90
12303;DHT22;6214;48.012;7.862;2023-04-03T19:33:47;7.50;99.90
12303;DHT22;6214;48.012;7.862;2023-04-03T19:36:16;7.40;99.90
12303;DHT22;6214;48.012;7.862;2023-04-03T19:38:43;7.30;99.90
12303;DHT22;6214;48.012;7.862;2023-04-03T19:41:17;7.10;99.90
12303;DHT22;6214;48.012;7.862;2023-04-03T19:43:45;7.10;99.90
12303;DHT22;6214;48.012;7.862;2023-04-03T19:46:13;6.90;99.90